Newington, New Hampshire
Current Conditions -  °F | °C
As of 9:51 AM on Thursday 30 Oct 2014 (Local Time) from KDAW Reporting Station
Overcast Overcast  
Wind Chill: 46°   Ceiling: 8000
Heat Index: 48°   Visibility: 10mi
Dew Point: 40°   Wind: 5mph
Humidity: 74%   Direction: 310°NW
Pressure: 29.92"   Gusts: NA
Location:  43.2364°N, 70.8206°W
Report Text: KDAW 301351Z AUTO 31004KT 10SM OVC080 09/04 A2992 RMK AO2 SLP129 T00890044
Loading
Personal Weather Stations






























Interactive Weather Map
Tropical Storm Tracking
New forecast layout! Learn more

10-Day Weather Forecast

Advertisements
Track Severe Weather on mobile